createdAt,value
2023-04-09T00:01:11.998Z,10.51
2023-04-09T00:03:39.517Z,10.47
2023-04-09T00:06:06.775Z,10.48
2023-04-09T00:08:33.746Z,10.47
2023-04-09T00:11:00.609Z,10.46
2023-04-09T00:13:38.589Z,10.41
2023-04-09T00:16:07.246Z,10.44
2023-04-09T00:18:34.202Z,10.40
2023-04-09T00:21:01.152Z,10.45
2023-04-09T00:23:28.037Z,10.45
2023-04-09T00:25:54.970Z,10.44
2023-04-09T00:28:21.845Z,10.42
2023-04-09T00:30:48.729Z,10.42
2023-04-09T00:33:15.721Z,10.37
2023-04-09T00:35:42.606Z,10.41
2023-04-09T00:38:09.509Z,10.37
2023-04-09T00:40:36.363Z,10.41
2023-04-09T00:43:03.510Z,10.40
2023-04-09T00:45:30.519Z,10.37
2023-04-09T00:47:57.516Z,10.33
2023-04-09T00:50:24.375Z,10.37
2023-04-09T00:52:51.411Z,10.38
2023-04-09T00:55:19.085Z,10.36
2023-04-09T00:57:46.836Z,10.35
2023-04-09T01:00:14.448Z,10.36
2023-04-09T01:02:42.074Z,10.34
2023-04-09T01:05:10.158Z,10.29
2023-04-09T01:08:13.814Z,10.31
2023-04-09T01:11:09.019Z,10.31
2023-04-09T01:13:49.576Z,10.31
2023-04-09T01:16:18.979Z,10.26
2023-04-09T01:19:02.999Z,10.31
2023-04-09T01:21:32.666Z,10.31
2023-04-09T01:24:29.650Z,10.31
2023-04-09T01:27:07.307Z,10.26
2023-04-09T01:29:39.595Z,10.26
2023-04-09T01:32:08.032Z,10.26
2023-04-09T01:34:36.214Z,10.26
2023-04-09T01:37:03.987Z,10.00
2023-04-09T01:39:31.389Z,10.20
2023-04-09T01:41:58.772Z,10.16
2023-04-09T01:44:26.413Z,10.21
2023-04-09T01:46:54.496Z,10.21
2023-04-09T01:49:22.309Z,10.21
2023-04-09T01:51:49.476Z,10.21
2023-04-09T01:54:17.322Z,10.22
2023-04-09T01:56:48.472Z,10.21
2023-04-09T01:59:16.061Z,10.19
2023-04-09T02:02:06.555Z,10.09
2023-04-09T02:04:41.348Z,10.17
2023-04-09T02:07:26.228Z,10.16
2023-04-09T02:09:54.632Z,10.12
2023-04-09T02:12:22.232Z,10.15
2023-04-09T02:14:52.167Z,10.14
2023-04-09T02:17:19.532Z,10.09
2023-04-09T02:19:48.186Z,10.09
2023-04-09T02:22:16.810Z,10.07
2023-04-09T02:24:43.886Z,10.07
2023-04-09T02:27:10.711Z,10.07
2023-04-09T02:29:39.983Z,10.07
2023-04-09T02:32:07.986Z,10.07
2023-04-09T02:34:34.813Z,10.06
2023-04-09T02:37:01.664Z,10.09
2023-04-09T02:39:28.502Z,10.08
2023-04-09T02:41:56.095Z,10.05
2023-04-09T02:44:22.925Z,10.06
2023-04-09T02:46:52.085Z,10.03
2023-04-09T02:49:19.004Z,10.09
2023-04-09T02:51:45.932Z,10.03
2023-04-09T02:54:12.750Z,10.08
2023-04-09T02:56:39.601Z,10.06
2023-04-09T02:59:06.417Z,10.04
2023-04-09T03:01:33.330Z,10.06
2023-04-09T03:04:01.535Z,10.03
2023-04-09T03:06:28.632Z,10.07
2023-04-09T03:08:55.521Z,10.05
2023-04-09T03:11:22.323Z,10.04
2023-04-09T03:13:49.111Z,10.01
2023-04-09T03:16:15.987Z,10.00
2023-04-09T03:18:42.855Z,9.98
2023-04-09T03:21:10.326Z,9.99
2023-04-09T03:23:37.672Z,9.97
2023-04-09T03:26:06.294Z,9.97
2023-04-09T03:28:33.381Z,9.95
2023-04-09T03:31:00.306Z,9.95
2023-04-09T03:33:27.243Z,9.96
2023-04-09T03:35:54.138Z,9.95
2023-04-09T03:38:21.175Z,9.96
2023-04-09T03:40:48.111Z,9.95
2023-04-09T03:43:14.971Z,9.93
2023-04-09T03:45:41.813Z,9.95
2023-04-09T03:48:08.601Z,9.94
2023-04-09T03:50:43.875Z,9.95
2023-04-09T03:53:10.678Z,9.90
2023-04-09T03:55:38.071Z,9.93
2023-04-09T03:58:05.005Z,9.89
2023-04-09T04:00:31.797Z,9.90
2023-04-09T04:02:58.867Z,9.90
2023-04-09T04:05:26.284Z,9.84
2023-04-09T04:07:53.650Z,9.86
2023-04-09T04:10:20.613Z,9.87
2023-04-09T04:12:47.706Z,9.83
2023-04-09T04:15:14.764Z,9.68
2023-04-09T04:17:41.679Z,9.67
2023-04-09T04:20:09.394Z,9.83
2023-04-09T04:22:36.270Z,9.81
2023-04-09T04:25:04.739Z,9.77
2023-04-09T04:27:31.617Z,9.79
2023-04-09T04:29:58.940Z,9.78
2023-04-09T04:32:26.871Z,9.77
2023-04-09T04:34:53.951Z,9.78
2023-04-09T04:37:21.627Z,9.77
2023-04-09T04:39:48.893Z,9.76
2023-04-09T04:42:16.464Z,9.75
2023-04-09T04:44:44.210Z,9.73
2023-04-09T04:47:11.038Z,9.71
2023-04-09T04:49:37.851Z,9.68
2023-04-09T04:52:04.850Z,9.65
2023-04-09T04:54:31.665Z,9.63
2023-04-09T04:56:58.527Z,9.63
2023-04-09T04:59:25.468Z,9.61
2023-04-09T05:01:52.430Z,9.56
2023-04-09T05:04:19.311Z,9.61
2023-04-09T05:06:46.393Z,9.58
2023-04-09T05:09:13.209Z,9.54
2023-04-09T05:11:39.986Z,9.55
2023-04-09T05:14:06.761Z,9.53
2023-04-09T05:16:33.652Z,9.54
2023-04-09T05:19:00.567Z,9.56
2023-04-09T05:21:27.656Z,9.56
2023-04-09T05:23:54.542Z,9.45
2023-04-09T05:26:21.802Z,9.13
2023-04-09T05:28:48.909Z,9.12
2023-04-09T05:31:16.131Z,9.28
2023-04-09T05:33:43.176Z,9.38
2023-04-09T05:36:17.023Z,9.42
2023-04-09T05:38:46.394Z,9.47
2023-04-09T05:41:13.369Z,9.51
2023-04-09T05:43:40.560Z,9.51
2023-04-09T05:46:07.498Z,9.49
2023-04-09T05:48:37.268Z,9.52
2023-04-09T05:51:04.157Z,9.54
2023-04-09T05:53:32.078Z,9.58
2023-04-09T05:55:59.055Z,9.60
2023-04-09T05:58:25.992Z,9.57
2023-04-09T06:00:52.819Z,9.59
2023-04-09T06:03:20.170Z,9.57
2023-04-09T06:05:47.204Z,9.63
2023-04-09T06:08:14.449Z,9.57
2023-04-09T06:10:41.612Z,9.66
2023-04-09T06:13:08.451Z,9.60
2023-04-09T06:15:38.181Z,9.67
2023-04-09T06:18:05.096Z,9.68
2023-04-09T06:20:31.945Z,9.70
2023-04-09T06:22:58.729Z,9.73
2023-04-09T06:25:25.630Z,9.69
2023-04-09T06:27:52.576Z,9.74
2023-04-09T06:30:19.418Z,9.75
2023-04-09T06:32:54.351Z,9.74
2023-04-09T06:35:22.728Z,9.75
2023-04-09T06:37:49.541Z,9.79
2023-04-09T06:40:16.442Z,9.78
2023-04-09T06:42:43.255Z,9.82
2023-04-09T06:45:10.392Z,9.71
2023-04-09T06:47:37.267Z,9.79
2023-04-09T06:50:04.897Z,9.82
2023-04-09T06:52:31.710Z,9.82
2023-04-09T06:54:58.555Z,9.79
2023-04-09T06:57:26.299Z,9.86
2023-04-09T06:59:53.145Z,9.88
2023-04-09T07:02:20.034Z,9.91
2023-04-09T07:04:47.621Z,9.82
2023-04-09T07:07:14.614Z,9.86
2023-04-09T07:09:42.059Z,9.87
2023-04-09T07:12:08.870Z,9.97
2023-04-09T07:14:35.684Z,9.92
2023-04-09T07:17:02.530Z,9.90
2023-04-09T07:19:29.402Z,9.94
2023-04-09T07:21:56.172Z,9.91
2023-04-09T07:24:23.037Z,9.89
2023-04-09T07:26:51.979Z,9.96
2023-04-09T07:29:20.743Z,9.99
2023-04-09T07:31:47.772Z,9.95
2023-04-09T07:34:14.691Z,9.96
2023-04-09T07:36:42.877Z,9.95
2023-04-09T07:39:09.865Z,10.01
2023-04-09T07:41:37.516Z,10.03
2023-04-09T07:44:06.220Z,10.04
2023-04-09T07:46:33.198Z,10.10
2023-04-09T07:49:00.060Z,10.13
2023-04-09T07:51:27.711Z,10.11
2023-04-09T07:53:54.609Z,10.18
2023-04-09T07:56:21.609Z,10.13
2023-04-09T07:58:49.340Z,10.18
2023-04-09T08:01:16.627Z,10.21
2023-04-09T08:03:43.800Z,10.21
2023-04-09T08:06:10.772Z,10.23
2023-04-09T08:08:37.759Z,10.16
2023-04-09T08:11:04.933Z,10.17
2023-04-09T08:13:31.725Z,10.13
2023-04-09T08:16:02.242Z,10.14
2023-04-09T08:18:29.717Z,10.15
2023-04-09T08:20:57.647Z,10.12
2023-04-09T08:23:24.506Z,10.12
2023-04-09T08:25:51.465Z,10.19
2023-04-09T08:28:18.390Z,10.18
2023-04-09T08:30:45.293Z,10.18
2023-04-09T08:33:12.254Z,10.17
2023-04-09T08:35:40.400Z,10.19
2023-04-09T08:38:07.274Z,10.28
2023-04-09T08:40:37.711Z,10.24
2023-04-09T08:43:06.996Z,10.30
2023-04-09T08:45:34.048Z,10.30
2023-04-09T08:48:03.676Z,10.31
2023-04-09T08:50:31.584Z,10.40
2023-04-09T08:52:59.238Z,10.32
2023-04-09T08:55:26.064Z,10.40
2023-04-09T08:57:52.887Z,10.39
2023-04-09T09:00:19.817Z,10.41
2023-04-09T09:03:08.405Z,10.45
2023-04-09T09:05:46.307Z,10.52
2023-04-09T09:08:24.318Z,10.39
2023-04-09T09:10:51.484Z,10.56
2023-04-09T09:13:26.795Z,10.55
2023-04-09T09:16:11.517Z,10.52
2023-04-09T09:18:43.792Z,10.61
2023-04-09T09:21:17.594Z,10.56
2023-04-09T09:23:45.384Z,10.61
2023-04-09T09:26:18.420Z,10.66
2023-04-09T09:28:47.001Z,10.69
2023-04-09T09:31:15.117Z,10.76
2023-04-09T09:33:42.784Z,10.97
2023-04-09T09:36:10.074Z,10.85
2023-04-09T09:38:57.133Z,10.74
2023-04-09T09:41:24.898Z,10.93
2023-04-09T09:43:52.088Z,11.01
2023-04-09T09:46:21.170Z,11.14
2023-04-09T09:48:49.566Z,11.04
2023-04-09T09:51:16.919Z,11.11
2023-04-09T09:53:47.094Z,11.09
2023-04-09T09:56:19.757Z,11.12
2023-04-09T09:59:03.939Z,11.16
2023-04-09T10:01:30.853Z,11.15
2023-04-09T10:04:01.515Z,11.20
2023-04-09T10:06:30.148Z,11.25
2023-04-09T10:09:04.733Z,11.30
2023-04-09T10:11:37.073Z,11.30
2023-04-09T10:14:07.536Z,11.31
2023-04-09T10:16:35.415Z,11.47
2023-04-09T10:19:03.335Z,11.56
2023-04-09T10:21:42.241Z,11.49
2023-04-09T10:24:09.940Z,11.38
2023-04-09T10:26:41.579Z,11.37
2023-04-09T10:29:16.619Z,11.47
2023-04-09T10:32:09.495Z,11.61
2023-04-09T10:34:42.722Z,11.74
2023-04-09T10:37:21.181Z,12.15
2023-04-09T10:39:49.961Z,12.49
2023-04-09T10:42:38.815Z,12.36
2023-04-09T10:45:10.776Z,12.44
2023-04-09T10:47:43.264Z,12.49
2023-04-09T10:50:22.476Z,12.38
2023-04-09T10:52:57.411Z,12.32
2023-04-09T10:55:54.078Z,12.35
2023-04-09T10:58:20.936Z,12.63
2023-04-09T11:00:50.880Z,13.77
2023-04-09T11:03:27.636Z,14.57
2023-04-09T11:06:07.126Z,13.90
2023-04-09T11:08:34.751Z,13.70
2023-04-09T11:11:02.462Z,13.83
2023-04-09T11:13:31.677Z,14.06
2023-04-09T11:16:00.597Z,13.77
2023-04-09T11:18:30.210Z,14.15
2023-04-09T11:20:59.483Z,14.09
2023-04-09T11:23:27.453Z,13.87
2023-04-09T11:25:55.312Z,13.81
2023-04-09T11:28:23.557Z,13.88
2023-04-09T11:30:53.581Z,13.77
2023-04-09T11:33:20.926Z,13.72
2023-04-09T11:35:48.697Z,13.46
2023-04-09T11:38:15.746Z,13.28
2023-04-09T11:40:48.447Z,13.23
2023-04-09T11:43:16.673Z,13.32
2023-04-09T11:45:44.328Z,13.34
2023-04-09T11:48:12.186Z,13.19
2023-04-09T11:50:39.255Z,13.18
2023-04-09T11:53:23.694Z,13.28
2023-04-09T11:55:52.440Z,13.46
2023-04-09T11:58:24.199Z,13.34
2023-04-09T12:00:59.260Z,13.45
2023-04-09T12:03:33.642Z,13.32
2023-04-09T12:06:03.309Z,13.62
2023-04-09T12:08:31.315Z,13.48
2023-04-09T12:11:08.313Z,13.34
2023-04-09T12:13:35.264Z,13.28
2023-04-09T12:16:03.497Z,13.39
2023-04-09T12:18:30.467Z,13.33
2023-04-09T12:20:57.449Z,13.37
2023-04-09T12:23:24.299Z,13.81
2023-04-09T12:25:51.100Z,13.95
2023-04-09T12:28:18.306Z,14.10
2023-04-09T12:30:46.029Z,14.31
2023-04-09T12:33:12.955Z,14.64
2023-04-09T12:35:39.843Z,14.70
2023-04-09T12:38:06.792Z,14.19
2023-04-09T12:40:35.564Z,13.98
2023-04-09T12:43:02.469Z,13.87
2023-04-09T12:45:30.468Z,13.78
2023-04-09T12:47:58.035Z,13.69
2023-04-09T12:50:25.359Z,13.57
2023-04-09T12:52:52.257Z,13.59
2023-04-09T12:55:19.139Z,13.53
2023-04-09T12:57:49.273Z,13.85
2023-04-09T13:00:16.460Z,14.15
2023-04-09T13:02:43.555Z,13.82
2023-04-09T13:05:13.652Z,13.75
2023-04-09T13:07:42.922Z,13.93
2023-04-09T13:10:11.537Z,13.86
2023-04-09T13:12:38.443Z,13.91
2023-04-09T13:15:06.610Z,14.31
2023-04-09T13:17:33.558Z,14.55
2023-04-09T13:20:01.308Z,14.52
2023-04-09T13:22:28.134Z,14.74
2023-04-09T13:24:54.979Z,14.96
2023-04-09T13:27:22.073Z,15.18
2023-04-09T13:29:48.897Z,15.21
2023-04-09T13:32:15.760Z,15.48
2023-04-09T13:34:42.577Z,15.46
2023-04-09T13:37:09.449Z,15.54
2023-04-09T13:39:36.257Z,15.63
2023-04-09T13:42:12.749Z,15.60
2023-04-09T13:44:42.268Z,15.53
2023-04-09T13:47:11.187Z,15.17
2023-04-09T13:49:38.241Z,15.09
2023-04-09T13:52:05.565Z,14.97
2023-04-09T13:54:33.538Z,14.94
2023-04-09T13:57:00.870Z,15.07
2023-04-09T13:59:27.766Z,15.08
2023-04-09T14:01:54.614Z,14.92
2023-04-09T14:04:21.793Z,14.85
2023-04-09T14:06:48.723Z,14.92
2023-04-09T14:09:15.789Z,14.84
2023-04-09T14:11:42.657Z,14.86
2023-04-09T14:14:10.617Z,14.80
2023-04-09T14:16:37.578Z,14.81
2023-04-09T14:19:04.541Z,14.86
2023-04-09T14:21:31.999Z,14.81
2023-04-09T14:23:58.878Z,14.77
2023-04-09T14:26:26.699Z,14.85
2023-04-09T14:28:53.717Z,14.98
2023-04-09T14:31:21.642Z,15.02
2023-04-09T14:33:49.176Z,14.94
2023-04-09T14:36:16.756Z,14.92
2023-04-09T14:38:43.802Z,14.96
2023-04-09T14:41:10.750Z,14.91
2023-04-09T14:43:37.611Z,15.24
2023-04-09T14:46:06.408Z,15.52
2023-04-09T14:48:33.356Z,15.44
2023-04-09T14:51:00.207Z,15.34
2023-04-09T14:53:27.034Z,15.37
2023-04-09T14:55:53.862Z,15.31
2023-04-09T14:58:21.422Z,15.39
2023-04-09T15:00:48.863Z,15.25
2023-04-09T15:03:16.002Z,15.19
2023-04-09T15:05:43.062Z,15.11
2023-04-09T15:08:09.908Z,15.19
2023-04-09T15:10:37.128Z,15.15
2023-04-09T15:13:03.937Z,15.11
2023-04-09T15:15:31.151Z,15.06
2023-04-09T15:17:58.174Z,15.07
2023-04-09T15:20:25.419Z,15.13
2023-04-09T15:22:52.589Z,15.46
2023-04-09T15:25:19.524Z,15.46
2023-04-09T15:27:46.881Z,15.68
2023-04-09T15:30:13.782Z,15.46
2023-04-09T15:32:40.750Z,15.36
2023-04-09T15:35:08.258Z,15.36
2023-04-09T15:37:35.344Z,15.35
2023-04-09T15:40:02.205Z,15.32
2023-04-09T15:42:29.050Z,15.35
2023-04-09T15:44:55.946Z,15.30
2023-04-09T15:47:22.770Z,15.25
2023-04-09T15:49:49.767Z,15.23
2023-04-09T15:52:16.593Z,15.19
2023-04-09T15:54:43.408Z,15.21
2023-04-09T15:57:10.242Z,15.21
2023-04-09T15:59:37.045Z,15.21
2023-04-09T16:02:04.575Z,15.21
2023-04-09T16:04:31.576Z,15.20
2023-04-09T16:06:58.509Z,15.27
2023-04-09T16:09:25.428Z,15.38
2023-04-09T16:11:52.211Z,15.38
2023-04-09T16:14:19.141Z,15.38
2023-04-09T16:16:50.017Z,15.41
2023-04-09T16:19:17.739Z,15.38
2023-04-09T16:21:45.507Z,15.43
2023-04-09T16:24:13.294Z,15.47
2023-04-09T16:26:44.636Z,15.48
2023-04-09T16:29:12.607Z,15.51
2023-04-09T16:31:42.155Z,15.50
2023-04-09T16:34:09.177Z,15.64
2023-04-09T16:36:37.093Z,15.59
2023-04-09T16:39:04.994Z,15.71
2023-04-09T16:41:31.972Z,15.77
2023-04-09T16:43:58.853Z,15.69
2023-04-09T16:46:25.690Z,15.62
2023-04-09T16:48:52.762Z,15.78
2023-04-09T16:51:20.042Z,15.67
2023-04-09T16:53:46.849Z,15.62
2023-04-09T16:56:15.824Z,15.59
2023-04-09T16:58:42.977Z,15.58
2023-04-09T17:01:09.879Z,15.57
2023-04-09T17:03:36.824Z,15.52
2023-04-09T17:06:04.783Z,15.51
2023-04-09T17:08:31.820Z,15.50
2023-04-09T17:11:02.366Z,15.49
2023-04-09T17:13:36.973Z,15.46
2023-04-09T17:16:04.164Z,15.40
2023-04-09T17:18:30.967Z,15.41
2023-04-09T17:20:57.884Z,15.39
2023-04-09T17:23:24.714Z,15.32
2023-04-09T17:25:51.684Z,15.24
2023-04-09T17:28:19.096Z,15.23
2023-04-09T17:30:46.103Z,15.16
2023-04-09T17:33:13.313Z,15.16
2023-04-09T17:35:41.929Z,15.14
2023-04-09T17:38:08.792Z,15.10
2023-04-09T17:40:35.927Z,14.98
2023-04-09T17:43:02.738Z,14.89
2023-04-09T17:45:29.641Z,14.82
2023-04-09T17:47:57.090Z,14.75
2023-04-09T17:50:23.954Z,14.78
2023-04-09T17:52:50.961Z,14.78
2023-04-09T17:55:18.279Z,14.74
2023-04-09T17:57:45.129Z,14.67
2023-04-09T18:00:12.615Z,14.67
2023-04-09T18:02:39.911Z,14.56
2023-04-09T18:05:07.603Z,14.54
2023-04-09T18:07:34.576Z,14.52
2023-04-09T18:10:03.408Z,14.43
2023-04-09T18:12:30.511Z,14.39
2023-04-09T18:14:57.326Z,14.38
2023-04-09T18:17:26.165Z,14.34
2023-04-09T18:19:58.378Z,14.30
2023-04-09T18:22:27.369Z,14.20
2023-04-09T18:24:54.621Z,14.20
2023-04-09T18:27:21.674Z,14.17
2023-04-09T18:29:51.596Z,14.08
2023-04-09T18:32:19.662Z,14.05
2023-04-09T18:34:48.015Z,14.00
2023-04-09T18:37:18.740Z,13.87
2023-04-09T18:39:46.850Z,13.89
2023-04-09T18:42:14.022Z,13.69
2023-04-09T18:44:40.896Z,13.81
2023-04-09T18:47:09.268Z,13.82
2023-04-09T18:49:36.500Z,13.81
2023-04-09T18:52:09.043Z,13.87
2023-04-09T18:54:37.281Z,13.82
2023-04-09T18:57:04.329Z,13.76
2023-04-09T18:59:34.962Z,13.80
2023-04-09T19:02:05.915Z,13.79
2023-04-09T19:04:39.695Z,13.75
2023-04-09T19:07:06.925Z,13.73
2023-04-09T19:09:34.478Z,13.70
2023-04-09T19:12:01.879Z,13.56
2023-04-09T19:14:28.851Z,13.58
2023-04-09T19:16:55.862Z,13.58
2023-04-09T19:19:23.343Z,13.57
2023-04-09T19:21:50.169Z,13.48
2023-04-09T19:24:17.029Z,13.49
2023-04-09T19:26:43.827Z,13.47
2023-04-09T19:29:10.751Z,13.44
2023-04-09T19:31:37.634Z,13.40
2023-04-09T19:34:05.999Z,13.36
2023-04-09T19:36:33.901Z,13.24
2023-04-09T19:39:00.772Z,13.19
2023-04-09T19:41:27.607Z,13.17
2023-04-09T19:43:54.551Z,13.12
2023-04-09T19:46:21.441Z,13.05
2023-04-09T19:48:48.573Z,13.03
2023-04-09T19:51:20.069Z,12.97
2023-04-09T19:53:47.834Z,12.88
2023-04-09T19:56:14.958Z,12.76
2023-04-09T19:58:43.584Z,12.80
2023-04-09T20:01:10.534Z,12.75
2023-04-09T20:03:37.508Z,12.65
2023-04-09T20:06:09.388Z,12.68
2023-04-09T20:08:37.748Z,12.63
2023-04-09T20:11:05.075Z,12.59
2023-04-09T20:13:31.919Z,12.55
2023-04-09T20:15:58.773Z,12.49
2023-04-09T20:18:25.839Z,12.41
2023-04-09T20:20:53.169Z,12.44
2023-04-09T20:23:19.995Z,12.38
2023-04-09T20:25:46.848Z,12.33
2023-04-09T20:28:13.632Z,12.31
2023-04-09T20:30:40.464Z,12.24
2023-04-09T20:33:07.315Z,12.23
2023-04-09T20:35:36.267Z,12.14
2023-04-09T20:38:03.453Z,12.10
2023-04-09T20:40:31.981Z,12.06
2023-04-09T20:42:59.479Z,12.06
2023-04-09T20:45:26.325Z,12.02
2023-04-09T20:47:53.325Z,11.97
2023-04-09T20:50:20.251Z,11.90
2023-04-09T20:52:47.890Z,11.88
2023-04-09T20:55:14.731Z,11.80
2023-04-09T20:57:41.567Z,11.79
2023-04-09T21:00:09.132Z,11.75
2023-04-09T21:02:38.733Z,11.69
2023-04-09T21:05:19.504Z,11.67
2023-04-09T21:07:50.713Z,11.57
2023-04-09T21:10:17.744Z,11.46
2023-04-09T21:12:44.624Z,11.56
2023-04-09T21:15:11.636Z,11.54
2023-04-09T21:17:38.524Z,11.48
2023-04-09T21:20:06.166Z,11.42
2023-04-09T21:22:34.713Z,11.37
2023-04-09T21:25:03.316Z,11.36
2023-04-09T21:27:30.402Z,11.30
2023-04-09T21:29:57.507Z,11.24
2023-04-09T21:32:25.114Z,11.19
2023-04-09T21:34:52.074Z,11.17
2023-04-09T21:37:18.917Z,11.15
2023-04-09T21:39:46.490Z,11.12
2023-04-09T21:42:13.302Z,11.10
2023-04-09T21:44:40.333Z,11.02
2023-04-09T21:47:08.933Z,11.02
2023-04-09T21:49:39.273Z,10.96
2023-04-09T21:52:13.876Z,10.90
2023-04-09T21:54:42.194Z,10.88
2023-04-09T21:57:09.578Z,10.78
2023-04-09T21:59:36.485Z,10.79
2023-04-09T22:02:06.159Z,10.66
2023-04-09T22:04:35.183Z,10.67
2023-04-09T22:07:03.354Z,10.65
2023-04-09T22:09:30.806Z,10.63
2023-04-09T22:11:59.495Z,10.60
2023-04-09T22:14:29.244Z,10.57
2023-04-09T22:17:01.448Z,10.52
2023-04-09T22:19:30.940Z,10.52
2023-04-09T22:21:58.426Z,10.52
2023-04-09T22:24:29.891Z,10.45
2023-04-09T22:26:58.956Z,10.44
2023-04-09T22:29:27.693Z,10.40
2023-04-09T22:31:55.740Z,10.33
2023-04-09T22:34:22.590Z,10.34
2023-04-09T22:36:49.806Z,10.28
2023-04-09T22:39:17.118Z,10.27
2023-04-09T22:41:44.205Z,10.24
2023-04-09T22:44:11.186Z,10.25
2023-04-09T22:46:38.130Z,10.16
2023-04-09T22:49:06.142Z,10.19
2023-04-09T22:51:36.462Z,10.12
2023-04-09T22:54:03.536Z,10.07
2023-04-09T22:56:31.922Z,10.02
2023-04-09T22:58:58.930Z,10.01
2023-04-09T23:01:26.704Z,9.93
2023-04-09T23:03:53.601Z,9.92
2023-04-09T23:06:21.766Z,9.92
2023-04-09T23:08:48.706Z,9.90
2023-04-09T23:11:15.678Z,9.84
2023-04-09T23:13:42.488Z,9.81
2023-04-09T23:16:11.256Z,9.76
2023-04-09T23:18:38.126Z,9.76
2023-04-09T23:21:07.238Z,9.70
2023-04-09T23:23:38.148Z,9.72
2023-04-09T23:26:06.221Z,9.72
2023-04-09T23:28:33.076Z,9.70
2023-04-09T23:31:00.177Z,9.68
2023-04-09T23:33:27.142Z,9.67
2023-04-09T23:35:54.114Z,9.66
2023-04-09T23:38:21.012Z,9.60
2023-04-09T23:40:49.118Z,9.60
2023-04-09T23:43:16.256Z,9.52
2023-04-09T23:45:44.535Z,9.57
2023-04-09T23:48:12.519Z,9.54
2023-04-09T23:50:41.639Z,9.52
2023-04-09T23:53:08.651Z,9.52
2023-04-09T23:55:40.748Z,9.50
2023-04-09T23:58:08.313Z,9.47
